sensor_id;sensor_type;location;lat;lon;timestamp;temperature;humidity
11454;DHT22;5783;55.174;61.310;2023-02-07T00:01:48;15.20;29.60
11454;DHT22;5783;55.174;61.310;2023-02-07T00:04:17;15.20;29.70
11454;DHT22;5783;55.174;61.310;2023-02-07T00:06:46;15.20;29.60
11454;DHT22;5783;55.174;61.310;2023-02-07T00:09:15;15.30;29.50
11454;DHT22;5783;55.174;61.310;2023-02-07T00:11:45;15.30;29.70
11454;DHT22;5783;55.174;61.310;2023-02-07T00:14:14;15.30;29.60
11454;DHT22;5783;55.174;61.310;2023-02-07T00:16:43;15.30;29.70
11454;DHT22;5783;55.174;61.310;2023-02-07T00:19:12;15.30;29.20
11454;DHT22;5783;55.174;61.310;2023-02-07T00:21:41;15.30;29.70
11454;DHT22;5783;55.174;61.310;2023-02-07T00:24:10;15.30;29.70
11454;DHT22;5783;55.174;61.310;2023-02-07T00:26:39;15.30;29.60
11454;DHT22;5783;55.174;61.310;2023-02-07T00:29:09;15.30;29.70
11454;DHT22;5783;55.174;61.310;2023-02-07T00:31:38;15.30;29.40
11454;DHT22;5783;55.174;61.310;2023-02-07T00:34:09;15.30;29.30
11454;DHT22;5783;55.174;61.310;2023-02-07T00:36:39;15.40;29.30
11454;DHT22;5783;55.174;61.310;2023-02-07T00:39:11;15.40;29.40
11454;DHT22;5783;55.174;61.310;2023-02-07T00:41:42;15.30;29.30
11454;DHT22;5783;55.174;61.310;2023-02-07T00:44:12;15.30;29.20
11454;DHT22;5783;55.174;61.310;2023-02-07T00:46:41;15.30;29.10
11454;DHT22;5783;55.174;61.310;2023-02-07T00:49:10;15.30;29.10
11454;DHT22;5783;55.174;61.310;2023-02-07T00:51:40;15.30;29.00
11454;DHT22;5783;55.174;61.310;2023-02-07T00:54:09;15.30;29.20
11454;DHT22;5783;55.174;61.310;2023-02-07T00:56:38;15.30;29.30
11454;DHT22;5783;55.174;61.310;2023-02-07T00:59:07;15.30;29.20
11454;DHT22;5783;55.174;61.310;2023-02-07T01:01:36;15.30;29.10
11454;DHT22;5783;55.174;61.310;2023-02-07T01:04:06;15.30;29.30
11454;DHT22;5783;55.174;61.310;2023-02-07T01:06:35;15.30;29.00
11454;DHT22;5783;55.174;61.310;2023-02-07T01:09:05;15.30;29.40
11454;DHT22;5783;55.174;61.310;2023-02-07T01:11:34;15.30;29.30
11454;DHT22;5783;55.174;61.310;2023-02-07T01:14:03;15.20;29.20
11454;DHT22;5783;55.174;61.310;2023-02-07T01:16:52;15.20;29.00
11454;DHT22;5783;55.174;61.310;2023-02-07T01:19:21;15.20;29.20
11454;DHT22;5783;55.174;61.310;2023-02-07T01:21:50;15.20;29.40
11454;DHT22;5783;55.174;61.310;2023-02-07T01:24:20;15.10;29.30
11454;DHT22;5783;55.174;61.310;2023-02-07T01:26:49;15.10;29.40
11454;DHT22;5783;55.174;61.310;2023-02-07T01:29:18;15.10;29.50
11454;DHT22;5783;55.174;61.310;2023-02-07T01:31:47;15.10;29.50
11454;DHT22;5783;55.174;61.310;2023-02-07T01:34:17;15.10;29.40
11454;DHT22;5783;55.174;61.310;2023-02-07T01:36:46;15.20;29.30
11454;DHT22;5783;55.174;61.310;2023-02-07T01:39:15;15.10;29.40
11454;DHT22;5783;55.174;61.310;2023-02-07T01:41:44;15.10;29.30
11454;DHT22;5783;55.174;61.310;2023-02-07T01:47:23;15.10;29.10
11454;DHT22;5783;55.174;61.310;2023-02-07T01:49:54;15.10;29.30
11454;DHT22;5783;55.174;61.310;2023-02-07T01:55:18;15.10;29.20
11454;DHT22;5783;55.174;61.310;2023-02-07T01:57:47;15.10;29.50
11454;DHT22;5783;55.174;61.310;2023-02-07T02:00:17;15.10;29.40
11454;DHT22;5783;55.174;61.310;2023-02-07T02:02:46;15.10;29.20
11454;DHT22;5783;55.174;61.310;2023-02-07T02:05:16;15.10;29.20
11454;DHT22;5783;55.174;61.310;2023-02-07T02:07:47;15.10;29.10
11454;DHT22;5783;55.174;61.310;2023-02-07T02:10:18;15.10;29.20
11454;DHT22;5783;55.174;61.310;2023-02-07T02:37:24;15.10;29.00
11454;DHT22;5783;55.174;61.310;2023-02-07T02:45:55;15.00;29.40
11454;DHT22;5783;55.174;61.310;2023-02-07T02:48:24;15.00;29.30
11454;DHT22;5783;55.174;61.310;2023-02-07T02:50:55;15.00;29.30
11454;DHT22;5783;55.174;61.310;2023-02-07T02:53:24;15.10;29.40
11454;DHT22;5783;55.174;61.310;2023-02-07T03:11:05;15.20;29.10
11454;DHT22;5783;55.174;61.310;2023-02-07T03:16:42;15.30;29.00
11454;DHT22;5783;55.174;61.310;2023-02-07T03:19:48;15.20;28.80
11454;DHT22;5783;55.174;61.310;2023-02-07T03:24:57;15.20;28.60
11454;DHT22;5783;55.174;61.310;2023-02-07T03:27:29;15.20;28.70
11454;DHT22;5783;55.174;61.310;2023-02-07T03:30:02;15.20;28.60
11454;DHT22;5783;55.174;61.310;2023-02-07T03:32:34;15.20;28.60
11454;DHT22;5783;55.174;61.310;2023-02-07T03:35:08;15.20;28.60
11454;DHT22;5783;55.174;61.310;2023-02-07T03:40:28;15.30;28.90
11454;DHT22;5783;55.174;61.310;2023-02-07T03:45:50;15.20;29.00
11454;DHT22;5783;55.174;61.310;2023-02-07T03:48:19;15.10;29.00
11454;DHT22;5783;55.174;61.310;2023-02-07T03:50:49;15.10;29.00
11454;DHT22;5783;55.174;61.310;2023-02-07T03:53:19;15.10;29.00
11454;DHT22;5783;55.174;61.310;2023-02-07T03:55:48;15.10;29.00
11454;DHT22;5783;55.174;61.310;2023-02-07T03:58:19;15.10;29.10
11454;DHT22;5783;55.174;61.310;2023-02-07T04:00:48;15.20;29.10
11454;DHT22;5783;55.174;61.310;2023-02-07T04:03:17;15.20;29.00
11454;DHT22;5783;55.174;61.310;2023-02-07T04:05:46;15.30;29.10
11454;DHT22;5783;55.174;61.310;2023-02-07T04:08:15;15.20;28.90
11454;DHT22;5783;55.174;61.310;2023-02-07T04:10:44;15.30;29.00
11454;DHT22;5783;55.174;61.310;2023-02-07T04:13:15;15.30;29.00
11454;DHT22;5783;55.174;61.310;2023-02-07T04:15:44;15.30;28.70
11454;DHT22;5783;55.174;61.310;2023-02-07T04:18:13;15.30;28.80
11454;DHT22;5783;55.174;61.310;2023-02-07T04:20:42;15.30;28.70
11454;DHT22;5783;55.174;61.310;2023-02-07T04:23:12;15.40;28.80
11454;DHT22;5783;55.174;61.310;2023-02-07T04:25:41;15.40;28.80
11454;DHT22;5783;55.174;61.310;2023-02-07T04:28:11;15.30;28.70
11454;DHT22;5783;55.174;61.310;2023-02-07T04:30:40;15.30;28.60
11454;DHT22;5783;55.174;61.310;2023-02-07T04:33:09;15.30;28.60
11454;DHT22;5783;55.174;61.310;2023-02-07T04:35:39;15.20;28.50
11454;DHT22;5783;55.174;61.310;2023-02-07T04:38:08;15.30;28.50
11454;DHT22;5783;55.174;61.310;2023-02-07T04:40:38;15.30;28.50
11454;DHT22;5783;55.174;61.310;2023-02-07T04:43:07;15.30;28.40
11454;DHT22;5783;55.174;61.310;2023-02-07T04:45:36;15.40;27.30
11454;DHT22;5783;55.174;61.310;2023-02-07T04:48:05;15.50;27.30
11454;DHT22;5783;55.174;61.310;2023-02-07T04:50:35;15.70;26.90
11454;DHT22;5783;55.174;61.310;2023-02-07T04:53:04;15.90;26.70
11454;DHT22;5783;55.174;61.310;2023-02-07T04:55:33;15.90;26.50
11454;DHT22;5783;55.174;61.310;2023-02-07T04:58:04;16.00;26.30
11454;DHT22;5783;55.174;61.310;2023-02-07T05:00:34;16.10;26.40
11454;DHT22;5783;55.174;61.310;2023-02-07T05:03:03;16.20;26.30
11454;DHT22;5783;55.174;61.310;2023-02-07T05:05:32;16.30;26.10
11454;DHT22;5783;55.174;61.310;2023-02-07T05:08:01;16.50;25.70
11454;DHT22;5783;55.174;61.310;2023-02-07T05:10:30;16.80;25.40
11454;DHT22;5783;55.174;61.310;2023-02-07T05:13:00;17.00;26.60
11454;DHT22;5783;55.174;61.310;2023-02-07T05:15:30;17.10;26.20
11454;DHT22;5783;55.174;61.310;2023-02-07T05:17:59;17.30;25.00
11454;DHT22;5783;55.174;61.310;2023-02-07T05:20:28;17.50;27.10
11454;DHT22;5783;55.174;61.310;2023-02-07T05:22:57;17.60;37.90
11454;DHT22;5783;55.174;61.310;2023-02-07T05:25:26;17.70;29.90
11454;DHT22;5783;55.174;61.310;2023-02-07T05:27:55;17.80;24.60
11454;DHT22;5783;55.174;61.310;2023-02-07T05:30:24;17.90;36.70
11454;DHT22;5783;55.174;61.310;2023-02-07T05:32:54;18.00;34.70
11454;DHT22;5783;55.174;61.310;2023-02-07T05:35:44;18.10;37.10
11454;DHT22;5783;55.174;61.310;2023-02-07T05:38:16;18.10;37.40
11454;DHT22;5783;55.174;61.310;2023-02-07T05:40:46;18.10;37.00
11454;DHT22;5783;55.174;61.310;2023-02-07T05:43:16;18.20;33.30
11454;DHT22;5783;55.174;61.310;2023-02-07T05:45:45;18.20;30.50
11454;DHT22;5783;55.174;61.310;2023-02-07T05:48:14;18.20;30.50
11454;DHT22;5783;55.174;61.310;2023-02-07T05:50:43;18.20;31.10
11454;DHT22;5783;55.174;61.310;2023-02-07T05:53:12;18.20;30.70
11454;DHT22;5783;55.174;61.310;2023-02-07T05:55:41;18.20;30.60
11454;DHT22;5783;55.174;61.310;2023-02-07T05:58:11;18.30;29.70
11454;DHT22;5783;55.174;61.310;2023-02-07T06:00:40;18.40;24.30
11454;DHT22;5783;55.174;61.310;2023-02-07T06:03:09;18.40;24.60
11454;DHT22;5783;55.174;61.310;2023-02-07T06:05:38;18.50;24.80
11454;DHT22;5783;55.174;61.310;2023-02-07T06:08:07;18.50;30.60
11454;DHT22;5783;55.174;61.310;2023-02-07T06:10:36;18.60;30.30
11454;DHT22;5783;55.174;61.310;2023-02-07T06:13:05;18.60;32.50
11454;DHT22;5783;55.174;61.310;2023-02-07T06:15:35;18.60;33.60
11454;DHT22;5783;55.174;61.310;2023-02-07T06:18:04;18.60;33.30
11454;DHT22;5783;55.174;61.310;2023-02-07T06:20:33;18.60;33.40
11454;DHT22;5783;55.174;61.310;2023-02-07T06:23:02;18.50;34.20
11454;DHT22;5783;55.174;61.310;2023-02-07T06:25:31;18.60;33.40
11454;DHT22;5783;55.174;61.310;2023-02-07T06:28:00;18.50;32.60
11454;DHT22;5783;55.174;61.310;2023-02-07T06:30:30;18.40;32.70
11454;DHT22;5783;55.174;61.310;2023-02-07T06:32:59;18.40;32.40
11454;DHT22;5783;55.174;61.310;2023-02-07T06:35:28;18.30;32.10
11454;DHT22;5783;55.174;61.310;2023-02-07T06:37:57;18.20;31.90
11454;DHT22;5783;55.174;61.310;2023-02-07T06:40:26;18.10;31.80
11454;DHT22;5783;55.174;61.310;2023-02-07T06:42:55;18.10;31.90
11454;DHT22;5783;55.174;61.310;2023-02-07T06:45:24;18.20;31.40
11454;DHT22;5783;55.174;61.310;2023-02-07T06:47:53;18.20;31.40
11454;DHT22;5783;55.174;61.310;2023-02-07T06:50:23;18.10;31.40
11454;DHT22;5783;55.174;61.310;2023-02-07T06:52:52;18.10;31.30
11454;DHT22;5783;55.174;61.310;2023-02-07T06:55:21;18.20;31.10
11454;DHT22;5783;55.174;61.310;2023-02-07T06:57:50;18.20;31.10
11454;DHT22;5783;55.174;61.310;2023-02-07T07:00:19;18.30;31.00
11454;DHT22;5783;55.174;61.310;2023-02-07T07:02:49;18.30;31.00
11454;DHT22;5783;55.174;61.310;2023-02-07T07:05:19;18.30;31.00
11454;DHT22;5783;55.174;61.310;2023-02-07T07:07:48;18.20;30.90
11454;DHT22;5783;55.174;61.310;2023-02-07T07:10:18;18.10;30.70
11454;DHT22;5783;55.174;61.310;2023-02-07T07:12:47;18.00;30.70
11454;DHT22;5783;55.174;61.310;2023-02-07T07:15:16;18.00;30.80
11454;DHT22;5783;55.174;61.310;2023-02-07T07:17:45;18.00;30.70
11454;DHT22;5783;55.174;61.310;2023-02-07T07:20:14;18.00;30.60
11454;DHT22;5783;55.174;61.310;2023-02-07T07:22:43;18.00;30.70
11454;DHT22;5783;55.174;61.310;2023-02-07T07:25:12;18.00;31.00
11454;DHT22;5783;55.174;61.310;2023-02-07T07:27:42;18.10;31.30
11454;DHT22;5783;55.174;61.310;2023-02-07T07:30:12;18.20;31.10
11454;DHT22;5783;55.174;61.310;2023-02-07T07:32:41;18.30;30.90
11454;DHT22;5783;55.174;61.310;2023-02-07T07:35:11;18.40;30.50
11454;DHT22;5783;55.174;61.310;2023-02-07T07:37:40;18.50;30.10
11454;DHT22;5783;55.174;61.310;2023-02-07T07:40:10;18.60;30.40
11454;DHT22;5783;55.174;61.310;2023-02-07T07:42:40;18.70;31.10
11454;DHT22;5783;55.174;61.310;2023-02-07T07:45:09;18.80;23.80
11454;DHT22;5783;55.174;61.310;2023-02-07T07:47:39;18.70;23.20
11454;DHT22;5783;55.174;61.310;2023-02-07T07:50:09;18.60;23.30
11454;DHT22;5783;55.174;61.310;2023-02-07T07:52:38;18.50;23.40
11454;DHT22;5783;55.174;61.310;2023-02-07T07:55:09;18.50;23.40
11454;DHT22;5783;55.174;61.310;2023-02-07T07:57:38;18.40;23.40
11454;DHT22;5783;55.174;61.310;2023-02-07T08:00:08;18.30;23.50
11454;DHT22;5783;55.174;61.310;2023-02-07T08:02:37;18.30;23.60
11454;DHT22;5783;55.174;61.310;2023-02-07T08:05:07;18.30;23.60
11454;DHT22;5783;55.174;61.310;2023-02-07T08:07:37;18.30;23.70
11454;DHT22;5783;55.174;61.310;2023-02-07T08:10:06;18.30;23.70
11454;DHT22;5783;55.174;61.310;2023-02-07T08:12:35;18.30;23.60
11454;DHT22;5783;55.174;61.310;2023-02-07T08:15:06;18.40;23.70
11454;DHT22;5783;55.174;61.310;2023-02-07T08:17:36;18.50;23.60
11454;DHT22;5783;55.174;61.310;2023-02-07T08:20:05;18.50;23.90
11454;DHT22;5783;55.174;61.310;2023-02-07T08:22:35;18.60;23.90
11454;DHT22;5783;55.174;61.310;2023-02-07T08:25:05;18.60;23.80
11454;DHT22;5783;55.174;61.310;2023-02-07T08:27:34;18.70;23.60
11454;DHT22;5783;55.174;61.310;2023-02-07T08:30:06;18.80;23.70
11454;DHT22;5783;55.174;61.310;2023-02-07T08:32:36;18.90;26.60
11454;DHT22;5783;55.174;61.310;2023-02-07T08:35:06;18.90;25.60
11454;DHT22;5783;55.174;61.310;2023-02-07T08:37:35;18.90;25.90
11454;DHT22;5783;55.174;61.310;2023-02-07T08:40:06;18.80;27.20
11454;DHT22;5783;55.174;61.310;2023-02-07T08:42:35;18.80;26.90
11454;DHT22;5783;55.174;61.310;2023-02-07T08:45:04;18.80;27.20
11454;DHT22;5783;55.174;61.310;2023-02-07T08:47:33;18.70;27.50
11454;DHT22;5783;55.174;61.310;2023-02-07T08:50:36;18.70;27.90
11454;DHT22;5783;55.174;61.310;2023-02-07T08:52:35;18.70;27.80
11454;DHT22;5783;55.174;61.310;2023-02-07T08:55:04;18.60;27.60
11454;DHT22;5783;55.174;61.310;2023-02-07T08:57:34;18.60;27.90
11454;DHT22;5783;55.174;61.310;2023-02-07T09:00:23;18.50;27.60
11454;DHT22;5783;55.174;61.310;2023-02-07T09:02:52;18.50;27.90
11454;DHT22;5783;55.174;61.310;2023-02-07T09:05:21;18.50;28.00
11454;DHT22;5783;55.174;61.310;2023-02-07T09:07:50;18.60;28.00
11454;DHT22;5783;55.174;61.310;2023-02-07T09:10:20;18.60;27.50
11454;DHT22;5783;55.174;61.310;2023-02-07T09:12:49;18.50;27.40
11454;DHT22;5783;55.174;61.310;2023-02-07T09:15:18;18.50;27.60
11454;DHT22;5783;55.174;61.310;2023-02-07T09:17:47;18.50;27.90
11454;DHT22;5783;55.174;61.310;2023-02-07T09:20:16;18.50;27.80
11454;DHT22;5783;55.174;61.310;2023-02-07T09:22:46;18.50;27.70
11454;DHT22;5783;55.174;61.310;2023-02-07T09:25:36;18.60;27.80
11454;DHT22;5783;55.174;61.310;2023-02-07T09:28:05;18.70;25.80
11454;DHT22;5783;55.174;61.310;2023-02-07T09:30:35;18.70;25.60
11454;DHT22;5783;55.174;61.310;2023-02-07T09:33:04;18.70;25.80
11454;DHT22;5783;55.174;61.310;2023-02-07T09:35:35;18.80;25.70
11454;DHT22;5783;55.174;61.310;2023-02-07T09:38:05;18.80;25.60
11454;DHT22;5783;55.174;61.310;2023-02-07T09:40:35;18.90;25.70
11454;DHT22;5783;55.174;61.310;2023-02-07T09:50:14;18.90;25.40
11454;DHT22;5783;55.174;61.310;2023-02-07T09:52:16;18.80;25.50
11454;DHT22;5783;55.174;61.310;2023-02-07T09:54:48;18.80;25.60
11454;DHT22;5783;55.174;61.310;2023-02-07T09:57:20;18.90;25.60
11454;DHT22;5783;55.174;61.310;2023-02-07T10:06:10;19.00;25.90
11454;DHT22;5783;55.174;61.310;2023-02-07T10:08:39;19.00;24.80
11454;DHT22;5783;55.174;61.310;2023-02-07T10:20:37;19.00;24.60
11454;DHT22;5783;55.174;61.310;2023-02-07T10:31:40;18.90;24.80
11454;DHT22;5783;55.174;61.310;2023-02-07T10:46:09;18.80;24.30
11454;DHT22;5783;55.174;61.310;2023-02-07T10:48:39;18.70;24.60
11454;DHT22;5783;55.174;61.310;2023-02-07T10:51:30;18.60;24.60
11454;DHT22;5783;55.174;61.310;2023-02-07T10:59:42;18.70;24.60
11454;DHT22;5783;55.174;61.310;2023-02-07T11:05:56;19.00;24.20
11454;DHT22;5783;55.174;61.310;2023-02-07T11:14:14;19.10;23.90
11454;DHT22;5783;55.174;61.310;2023-02-07T11:16:44;19.10;24.00
11454;DHT22;5783;55.174;61.310;2023-02-07T11:19:33;19.00;24.00
11454;DHT22;5783;55.174;61.310;2023-02-07T11:22:22;19.00;24.10
11454;DHT22;5783;55.174;61.310;2023-02-07T11:24:58;19.00;24.30
11454;DHT22;5783;55.174;61.310;2023-02-07T11:27:25;19.10;24.30
11454;DHT22;5783;55.174;61.310;2023-02-07T11:30:15;19.10;24.10
11454;DHT22;5783;55.174;61.310;2023-02-07T11:33:18;19.10;23.80
11454;DHT22;5783;55.174;61.310;2023-02-07T11:35:18;19.10;24.40
11454;DHT22;5783;55.174;61.310;2023-02-07T11:43:32;19.00;24.60
11454;DHT22;5783;55.174;61.310;2023-02-07T11:46:04;18.90;24.40
11454;DHT22;5783;55.174;61.310;2023-02-07T11:48:36;18.90;24.70
11454;DHT22;5783;55.174;61.310;2023-02-07T11:51:07;18.90;24.60
11454;DHT22;5783;55.174;61.310;2023-02-07T11:54:31;19.00;24.60
11454;DHT22;5783;55.174;61.310;2023-02-07T11:59:21;18.90;24.10
11454;DHT22;5783;55.174;61.310;2023-02-07T12:01:53;18.80;24.30
11454;DHT22;5783;55.174;61.310;2023-02-07T12:04:43;18.80;24.40
11454;DHT22;5783;55.174;61.310;2023-02-07T12:10:04;18.80;24.20
11454;DHT22;5783;55.174;61.310;2023-02-07T12:16:04;18.90;24.40
11454;DHT22;5783;55.174;61.310;2023-02-07T12:18:54;18.80;24.50
11454;DHT22;5783;55.174;61.310;2023-02-07T12:42:36;18.20;34.40
11454;DHT22;5783;55.174;61.310;2023-02-07T12:45:04;18.00;28.30
11454;DHT22;5783;55.174;61.310;2023-02-07T13:26:04;17.30;24.60
11454;DHT22;5783;55.174;61.310;2023-02-07T13:28:54;17.20;24.50
11454;DHT22;5783;55.174;61.310;2023-02-07T13:34:17;17.30;24.40
11454;DHT22;5783;55.174;61.310;2023-02-07T13:36:48;17.30;24.30
11454;DHT22;5783;55.174;61.310;2023-02-07T14:01:07;17.30;24.30
11454;DHT22;5783;55.174;61.310;2023-02-07T14:06:25;17.20;24.00
11454;DHT22;5783;55.174;61.310;2023-02-07T14:09:15;17.00;25.10
11454;DHT22;5783;55.174;61.310;2023-02-07T14:12:05;16.70;24.10
11454;DHT22;5783;55.174;61.310;2023-02-07T14:14:55;16.50;25.00
11454;DHT22;5783;55.174;61.310;2023-02-07T14:23:47;16.00;24.40
11454;DHT22;5783;55.174;61.310;2023-02-07T14:25:57;16.00;24.50
11454;DHT22;5783;55.174;61.310;2023-02-07T14:28:46;15.90;24.50
11454;DHT22;5783;55.174;61.310;2023-02-07T14:31:34;15.90;24.50
11454;DHT22;5783;55.174;61.310;2023-02-07T14:34:27;15.90;24.40
11454;DHT22;5783;55.174;61.310;2023-02-07T14:36:54;15.90;24.40
11454;DHT22;5783;55.174;61.310;2023-02-07T14:39:44;15.90;24.40
11454;DHT22;5783;55.174;61.310;2023-02-07T14:42:34;15.80;24.50
11454;DHT22;5783;55.174;61.310;2023-02-07T14:45:04;15.80;24.50
11454;DHT22;5783;55.174;61.310;2023-02-07T14:47:34;15.80;24.60
11454;DHT22;5783;55.174;61.310;2023-02-07T14:50:05;15.80;24.60
11454;DHT22;5783;55.174;61.310;2023-02-07T14:52:36;15.80;24.60
11454;DHT22;5783;55.174;61.310;2023-02-07T14:57:59;15.70;24.50
11454;DHT22;5783;55.174;61.310;2023-02-07T15:00:48;15.50;27.00
11454;DHT22;5783;55.174;61.310;2023-02-07T15:03:20;15.50;24.70
11454;DHT22;5783;55.174;61.310;2023-02-07T15:09:52;15.20;25.40
11454;DHT22;5783;55.174;61.310;2023-02-07T15:11:48;15.00;26.30
11454;DHT22;5783;55.174;61.310;2023-02-07T15:17:09;14.80;27.90
11454;DHT22;5783;55.174;61.310;2023-02-07T15:19:40;14.80;28.70
11454;DHT22;5783;55.174;61.310;2023-02-07T15:22:18;14.80;30.50
11454;DHT22;5783;55.174;61.310;2023-02-07T15:24:42;14.80;32.90
11454;DHT22;5783;55.174;61.310;2023-02-07T15:27:31;14.70;30.40
11454;DHT22;5783;55.174;61.310;2023-02-07T15:35:27;14.70;43.70
11454;DHT22;5783;55.174;61.310;2023-02-07T15:40:46;14.70;35.80
11454;DHT22;5783;55.174;61.310;2023-02-07T15:43:35;14.70;36.40
11454;DHT22;5783;55.174;61.310;2023-02-07T15:46:24;14.70;36.40
11454;DHT22;5783;55.174;61.310;2023-02-07T15:48:55;14.70;31.90
11454;DHT22;5783;55.174;61.310;2023-02-07T15:51:27;14.70;28.60
11454;DHT22;5783;55.174;61.310;2023-02-07T15:53:58;14.70;28.70
11454;DHT22;5783;55.174;61.310;2023-02-07T15:56:29;14.70;28.90
11454;DHT22;5783;55.174;61.310;2023-02-07T15:59:00;14.70;29.00
11454;DHT22;5783;55.174;61.310;2023-02-07T16:01:30;14.70;29.00
11454;DHT22;5783;55.174;61.310;2023-02-07T16:04:01;14.70;29.20
11454;DHT22;5783;55.174;61.310;2023-02-07T16:06:31;14.70;28.90
11454;DHT22;5783;55.174;61.310;2023-02-07T16:09:02;14.70;28.80
11454;DHT22;5783;55.174;61.310;2023-02-07T16:11:51;14.70;28.90
11454;DHT22;5783;55.174;61.310;2023-02-07T16:14:22;14.80;29.00
11454;DHT22;5783;55.174;61.310;2023-02-07T16:16:58;14.80;29.30
11454;DHT22;5783;55.174;61.310;2023-02-07T16:19:28;14.70;28.80
11454;DHT22;5783;55.174;61.310;2023-02-07T16:24:48;14.80;29.00
11454;DHT22;5783;55.174;61.310;2023-02-07T16:27:22;14.70;29.00
11454;DHT22;5783;55.174;61.310;2023-02-07T16:29:54;14.70;29.00
11454;DHT22;5783;55.174;61.310;2023-02-07T16:35:34;14.80;29.20
11454;DHT22;5783;55.174;61.310;2023-02-07T16:38:03;14.80;28.90
11454;DHT22;5783;55.174;61.310;2023-02-07T16:40:32;14.80;28.80
11454;DHT22;5783;55.174;61.310;2023-02-07T16:46:09;14.80;28.60
11454;DHT22;5783;55.174;61.310;2023-02-07T16:48:39;14.80;28.80
11454;DHT22;5783;55.174;61.310;2023-02-07T16:51:10;14.80;28.80
11454;DHT22;5783;55.174;61.310;2023-02-07T16:53:39;14.80;28.80
11454;DHT22;5783;55.174;61.310;2023-02-07T16:56:10;14.90;28.60
11454;DHT22;5783;55.174;61.310;2023-02-07T16:58:40;14.90;28.40
11454;DHT22;5783;55.174;61.310;2023-02-07T17:01:14;14.90;28.30
11454;DHT22;5783;55.174;61.310;2023-02-07T17:03:42;14.80;28.30
11454;DHT22;5783;55.174;61.310;2023-02-07T17:09:01;14.80;28.80
11454;DHT22;5783;55.174;61.310;2023-02-07T17:11:30;14.70;28.60
11454;DHT22;5783;55.174;61.310;2023-02-07T17:13:59;14.70;28.60
11454;DHT22;5783;55.174;61.310;2023-02-07T17:16:29;14.70;28.80
11454;DHT22;5783;55.174;61.310;2023-02-07T17:18:58;14.70;28.80
11454;DHT22;5783;55.174;61.310;2023-02-07T17:21:28;14.70;28.80
11454;DHT22;5783;55.174;61.310;2023-02-07T17:23:57;14.70;29.00
11454;DHT22;5783;55.174;61.310;2023-02-07T17:26:28;14.70;29.10
11454;DHT22;5783;55.174;61.310;2023-02-07T17:28:58;14.70;29.10
11454;DHT22;5783;55.174;61.310;2023-02-07T17:31:27;14.70;29.10
11454;DHT22;5783;55.174;61.310;2023-02-07T17:33:58;14.80;29.00
11454;DHT22;5783;55.174;61.310;2023-02-07T17:36:27;14.80;28.80
11454;DHT22;5783;55.174;61.310;2023-02-07T17:38:56;14.80;28.90
11454;DHT22;5783;55.174;61.310;2023-02-07T17:41:26;14.80;28.90
11454;DHT22;5783;55.174;61.310;2023-02-07T17:43:57;14.80;28.80
11454;DHT22;5783;55.174;61.310;2023-02-07T17:46:26;14.80;28.80
11454;DHT22;5783;55.174;61.310;2023-02-07T17:48:56;14.80;28.90
11454;DHT22;5783;55.174;61.310;2023-02-07T17:51:26;14.80;29.00
11454;DHT22;5783;55.174;61.310;2023-02-07T17:53:56;14.80;28.80
11454;DHT22;5783;55.174;61.310;2023-02-07T17:56:45;14.80;28.90
11454;DHT22;5783;55.174;61.310;2023-02-07T17:59:49;14.80;29.00
11454;DHT22;5783;55.174;61.310;2023-02-07T18:01:46;14.80;28.80
11454;DHT22;5783;55.174;61.310;2023-02-07T18:04:16;14.90;28.70
11454;DHT22;5783;55.174;61.310;2023-02-07T18:06:45;14.90;29.00
11454;DHT22;5783;55.174;61.310;2023-02-07T18:09:16;14.90;28.80
11454;DHT22;5783;55.174;61.310;2023-02-07T18:11:46;14.80;28.80
11454;DHT22;5783;55.174;61.310;2023-02-07T18:14:16;14.80;28.90
11454;DHT22;5783;55.174;61.310;2023-02-07T18:16:45;14.80;29.00
11454;DHT22;5783;55.174;61.310;2023-02-07T18:19:16;14.80;28.70
11454;DHT22;5783;55.174;61.310;2023-02-07T18:22:05;14.80;28.80
11454;DHT22;5783;55.174;61.310;2023-02-07T18:24:54;14.70;28.80
11454;DHT22;5783;55.174;61.310;2023-02-07T18:27:23;14.70;28.80
11454;DHT22;5783;55.174;61.310;2023-02-07T18:29:52;14.70;28.80
11454;DHT22;5783;55.174;61.310;2023-02-07T18:32:21;14.70;28.80
11454;DHT22;5783;55.174;61.310;2023-02-07T18:34:50;14.70;29.00
11454;DHT22;5783;55.174;61.310;2023-02-07T18:37:19;14.70;28.90
11454;DHT22;5783;55.174;61.310;2023-02-07T18:39:49;14.70;28.80
11454;DHT22;5783;55.174;61.310;2023-02-07T18:42:18;14.70;29.00
11454;DHT22;5783;55.174;61.310;2023-02-07T18:44:47;14.70;29.10
11454;DHT22;5783;55.174;61.310;2023-02-07T18:47:19;14.60;29.10
11454;DHT22;5783;55.174;61.310;2023-02-07T18:49:48;14.60;29.10
11454;DHT22;5783;55.174;61.310;2023-02-07T18:52:18;14.70;29.10
11454;DHT22;5783;55.174;61.310;2023-02-07T18:54:47;14.70;29.30
11454;DHT22;5783;55.174;61.310;2023-02-07T18:57:16;14.60;29.20
11454;DHT22;5783;55.174;61.310;2023-02-07T18:59:45;14.60;29.20
11454;DHT22;5783;55.174;61.310;2023-02-07T19:02:14;14.60;29.10
11454;DHT22;5783;55.174;61.310;2023-02-07T19:04:43;14.70;29.20
11454;DHT22;5783;55.174;61.310;2023-02-07T19:07:13;14.70;29.00
11454;DHT22;5783;55.174;61.310;2023-02-07T19:09:42;14.70;28.90
11454;DHT22;5783;55.174;61.310;2023-02-07T19:12:12;14.70;29.00
11454;DHT22;5783;55.174;61.310;2023-02-07T19:14:41;14.70;29.10
11454;DHT22;5783;55.174;61.310;2023-02-07T19:17:10;14.70;29.10
11454;DHT22;5783;55.174;61.310;2023-02-07T19:19:41;14.70;29.00
11454;DHT22;5783;55.174;61.310;2023-02-07T19:22:11;14.70;29.10
11454;DHT22;5783;55.174;61.310;2023-02-07T19:24:40;14.70;29.10
11454;DHT22;5783;55.174;61.310;2023-02-07T19:27:09;14.70;29.20
11454;DHT22;5783;55.174;61.310;2023-02-07T19:29:38;14.70;28.90
11454;DHT22;5783;55.174;61.310;2023-02-07T19:32:08;14.70;29.00
11454;DHT22;5783;55.174;61.310;2023-02-07T19:34:37;14.70;28.90
11454;DHT22;5783;55.174;61.310;2023-02-07T19:37:06;14.70;28.90
11454;DHT22;5783;55.174;61.310;2023-02-07T19:39:36;14.70;28.90
11454;DHT22;5783;55.174;61.310;2023-02-07T19:42:05;14.70;28.70
11454;DHT22;5783;55.174;61.310;2023-02-07T19:44:34;14.70;28.80
11454;DHT22;5783;55.174;61.310;2023-02-07T19:47:03;14.70;28.70
11454;DHT22;5783;55.174;61.310;2023-02-07T19:49:32;14.60;28.80
11454;DHT22;5783;55.174;61.310;2023-02-07T19:52:01;14.60;29.10
11454;DHT22;5783;55.174;61.310;2023-02-07T19:54:30;14.60;28.60
11454;DHT22;5783;55.174;61.310;2023-02-07T19:57:00;14.60;29.10
11454;DHT22;5783;55.174;61.310;2023-02-07T19:59:29;14.50;29.00
11454;DHT22;5783;55.174;61.310;2023-02-07T20:01:58;14.50;29.00
11454;DHT22;5783;55.174;61.310;2023-02-07T20:04:27;14.50;29.10
11454;DHT22;5783;55.174;61.310;2023-02-07T20:06:56;14.50;38.70
11454;DHT22;5783;55.174;61.310;2023-02-07T20:09:25;14.50;38.30
11454;DHT22;5783;55.174;61.310;2023-02-07T20:11:54;14.50;37.00
11454;DHT22;5783;55.174;61.310;2023-02-07T20:14:24;14.30;35.90